sensor_id;sensor_type;location;lat;lon;timestamp;temperature;humidity
9323;DHT22;4700;48.822;9.270;2022-09-30T00:02:04;7.70;1.00
9323;DHT22;4700;48.822;9.270;2022-09-30T00:04:49;7.80;1.00
9323;DHT22;4700;48.822;9.270;2022-09-30T00:07:36;7.90;1.00
9323;DHT22;4700;48.822;9.270;2022-09-30T00:10:22;7.90;1.00
9323;DHT22;4700;48.822;9.270;2022-09-30T00:13:09;7.90;1.00
9323;DHT22;4700;48.822;9.270;2022-09-30T00:15:55;7.80;1.00
9323;DHT22;4700;48.822;9.270;2022-09-30T00:18:42;7.90;1.00
9323;DHT22;4700;48.822;9.270;2022-09-30T00:21:28;7.90;1.00
9323;DHT22;4700;48.822;9.270;2022-09-30T00:24:15;7.90;1.00
9323;DHT22;4700;48.822;9.270;2022-09-30T00:27:00;8.00;1.00
9323;DHT22;4700;48.822;9.270;2022-09-30T00:29:48;8.00;1.00
9323;DHT22;4700;48.822;9.270;2022-09-30T00:32:34;8.10;1.00
9323;DHT22;4700;48.822;9.270;2022-09-30T00:35:20;8.00;1.00
9323;DHT22;4700;48.822;9.270;2022-09-30T00:38:06;8.00;1.00
9323;DHT22;4700;48.822;9.270;2022-09-30T00:40:52;8.10;1.00
9323;DHT22;4700;48.822;9.270;2022-09-30T00:43:41;8.10;1.00
9323;DHT22;4700;48.822;9.270;2022-09-30T00:46:33;8.00;1.00
9323;DHT22;4700;48.822;9.270;2022-09-30T00:49:23;8.00;1.00
9323;DHT22;4700;48.822;9.270;2022-09-30T00:52:10;8.00;1.00
9323;DHT22;4700;48.822;9.270;2022-09-30T00:54:57;8.00;1.00
9323;DHT22;4700;48.822;9.270;2022-09-30T00:57:44;8.00;1.00
9323;DHT22;4700;48.822;9.270;2022-09-30T01:00:30;8.00;1.00
9323;DHT22;4700;48.822;9.270;2022-09-30T01:03:18;8.00;1.00
9323;DHT22;4700;48.822;9.270;2022-09-30T01:06:06;8.00;1.00
9323;DHT22;4700;48.822;9.270;2022-09-30T01:08:52;8.00;1.00
9323;DHT22;4700;48.822;9.270;2022-09-30T01:11:38;8.10;1.00
9323;DHT22;4700;48.822;9.270;2022-09-30T01:14:26;8.20;1.00
9323;DHT22;4700;48.822;9.270;2022-09-30T01:17:17;8.20;1.00
9323;DHT22;4700;48.822;9.270;2022-09-30T01:23:51;8.20;1.00
9323;DHT22;4700;48.822;9.270;2022-09-30T01:27:00;8.20;1.00
9323;DHT22;4700;48.822;9.270;2022-09-30T01:30:11;8.10;1.00
9323;DHT22;4700;48.822;9.270;2022-09-30T01:33:09;8.00;1.00
9323;DHT22;4700;48.822;9.270;2022-09-30T01:39:22;8.00;1.00
9323;DHT22;4700;48.822;9.270;2022-09-30T01:42:30;7.90;1.00
9323;DHT22;4700;48.822;9.270;2022-09-30T01:45:28;7.80;1.00
9323;DHT22;4700;48.822;9.270;2022-09-30T01:48:20;7.70;1.00
9323;DHT22;4700;48.822;9.270;2022-09-30T01:51:08;7.60;1.00
9323;DHT22;4700;48.822;9.270;2022-09-30T01:53:59;7.60;1.00
9323;DHT22;4700;48.822;9.270;2022-09-30T01:56:49;7.50;1.00
9323;DHT22;4700;48.822;9.270;2022-09-30T01:59:40;7.50;1.00
9323;DHT22;4700;48.822;9.270;2022-09-30T02:02:31;7.40;1.00
9323;DHT22;4700;48.822;9.270;2022-09-30T02:05:22;7.40;1.00
9323;DHT22;4700;48.822;9.270;2022-09-30T02:08:12;7.40;1.00
9323;DHT22;4700;48.822;9.270;2022-09-30T02:11:04;7.40;1.00
9323;DHT22;4700;48.822;9.270;2022-09-30T02:13:55;7.40;1.00
9323;DHT22;4700;48.822;9.270;2022-09-30T02:16:46;7.40;1.00
9323;DHT22;4700;48.822;9.270;2022-09-30T02:19:35;7.40;1.00
9323;DHT22;4700;48.822;9.270;2022-09-30T02:22:27;7.40;1.00
9323;DHT22;4700;48.822;9.270;2022-09-30T02:25:26;7.50;1.00
9323;DHT22;4700;48.822;9.270;2022-09-30T02:28:17;7.50;1.00
9323;DHT22;4700;48.822;9.270;2022-09-30T02:31:07;7.50;1.00
9323;DHT22;4700;48.822;9.270;2022-09-30T02:33:57;7.50;1.00
9323;DHT22;4700;48.822;9.270;2022-09-30T02:36:48;7.50;1.00
9323;DHT22;4700;48.822;9.270;2022-09-30T02:39:40;7.60;1.00
9323;DHT22;4700;48.822;9.270;2022-09-30T02:42:29;7.70;1.00
9323;DHT22;4700;48.822;9.270;2022-09-30T02:45:19;7.70;1.00
9323;DHT22;4700;48.822;9.270;2022-09-30T02:48:15;7.80;1.00
9323;DHT22;4700;48.822;9.270;2022-09-30T02:51:07;7.80;1.00
9323;DHT22;4700;48.822;9.270;2022-09-30T02:54:01;7.70;1.00
9323;DHT22;4700;48.822;9.270;2022-09-30T02:56:53;7.60;1.00
9323;DHT22;4700;48.822;9.270;2022-09-30T02:59:41;7.60;1.00
9323;DHT22;4700;48.822;9.270;2022-09-30T03:02:27;7.50;1.00
9323;DHT22;4700;48.822;9.270;2022-09-30T03:05:13;7.50;1.00
9323;DHT22;4700;48.822;9.270;2022-09-30T03:08:03;7.40;1.00
9323;DHT22;4700;48.822;9.270;2022-09-30T03:10:50;7.40;1.00
9323;DHT22;4700;48.822;9.270;2022-09-30T03:17:26;7.30;1.00
9323;DHT22;4700;48.822;9.270;2022-09-30T03:20:29;7.30;1.00
9323;DHT22;4700;48.822;9.270;2022-09-30T03:26:36;7.20;1.00
9323;DHT22;4700;48.822;9.270;2022-09-30T03:29:33;7.20;1.00
9323;DHT22;4700;48.822;9.270;2022-09-30T03:32:30;7.10;1.00
9323;DHT22;4700;48.822;9.270;2022-09-30T03:35:24;7.10;1.00
9323;DHT22;4700;48.822;9.270;2022-09-30T03:38:18;7.10;1.00
9323;DHT22;4700;48.822;9.270;2022-09-30T03:41:13;7.10;1.00
9323;DHT22;4700;48.822;9.270;2022-09-30T03:44:06;7.10;1.00
9323;DHT22;4700;48.822;9.270;2022-09-30T03:46:59;7.10;1.00
9323;DHT22;4700;48.822;9.270;2022-09-30T03:49:52;7.10;1.00
9323;DHT22;4700;48.822;9.270;2022-09-30T03:52:40;7.00;1.00
9323;DHT22;4700;48.822;9.270;2022-09-30T03:55:27;7.00;1.00
9323;DHT22;4700;48.822;9.270;2022-09-30T03:58:15;6.90;1.00
9323;DHT22;4700;48.822;9.270;2022-09-30T04:01:02;6.90;1.00
9323;DHT22;4700;48.822;9.270;2022-09-30T04:03:49;6.90;1.00
9323;DHT22;4700;48.822;9.270;2022-09-30T04:06:36;6.80;1.00
9323;DHT22;4700;48.822;9.270;2022-09-30T04:09:22;6.70;1.00
9323;DHT22;4700;48.822;9.270;2022-09-30T04:12:07;6.70;1.00
9323;DHT22;4700;48.822;9.270;2022-09-30T04:14:53;6.60;1.00
9323;DHT22;4700;48.822;9.270;2022-09-30T04:17:39;6.50;1.00
9323;DHT22;4700;48.822;9.270;2022-09-30T04:20:26;6.40;1.00
9323;DHT22;4700;48.822;9.270;2022-09-30T04:23:12;6.40;1.00
9323;DHT22;4700;48.822;9.270;2022-09-30T04:25:58;6.40;1.00
9323;DHT22;4700;48.822;9.270;2022-09-30T04:28:43;6.40;1.00
9323;DHT22;4700;48.822;9.270;2022-09-30T04:31:29;6.30;1.00
9323;DHT22;4700;48.822;9.270;2022-09-30T04:34:15;6.30;1.00
9323;DHT22;4700;48.822;9.270;2022-09-30T04:37:02;6.20;1.00
9323;DHT22;4700;48.822;9.270;2022-09-30T04:39:47;6.20;1.00
9323;DHT22;4700;48.822;9.270;2022-09-30T04:42:33;6.20;1.00
9323;DHT22;4700;48.822;9.270;2022-09-30T04:45:19;6.20;1.00
9323;DHT22;4700;48.822;9.270;2022-09-30T04:48:05;6.10;1.00
9323;DHT22;4700;48.822;9.270;2022-09-30T04:50:51;6.10;1.00
9323;DHT22;4700;48.822;9.270;2022-09-30T04:53:38;6.00;1.00
9323;DHT22;4700;48.822;9.270;2022-09-30T04:56:24;5.90;1.00
9323;DHT22;4700;48.822;9.270;2022-09-30T04:59:10;6.00;1.00
9323;DHT22;4700;48.822;9.270;2022-09-30T05:01:56;5.90;1.00
9323;DHT22;4700;48.822;9.270;2022-09-30T05:04:41;5.90;1.00
9323;DHT22;4700;48.822;9.270;2022-09-30T05:07:29;5.90;1.00
9323;DHT22;4700;48.822;9.270;2022-09-30T05:10:16;5.90;1.00
9323;DHT22;4700;48.822;9.270;2022-09-30T05:13:02;5.90;1.00
9323;DHT22;4700;48.822;9.270;2022-09-30T05:15:49;5.90;1.00
9323;DHT22;4700;48.822;9.270;2022-09-30T05:18:36;5.90;1.00
9323;DHT22;4700;48.822;9.270;2022-09-30T05:21:22;5.80;1.00
9323;DHT22;4700;48.822;9.270;2022-09-30T05:24:08;5.90;1.00
9323;DHT22;4700;48.822;9.270;2022-09-30T05:26:56;5.80;1.00
9323;DHT22;4700;48.822;9.270;2022-09-30T05:29:42;5.80;1.00
9323;DHT22;4700;48.822;9.270;2022-09-30T05:32:28;5.80;1.00
9323;DHT22;4700;48.822;9.270;2022-09-30T05:35:15;5.80;1.00
9323;DHT22;4700;48.822;9.270;2022-09-30T05:38:01;5.80;1.00
9323;DHT22;4700;48.822;9.270;2022-09-30T05:40:47;5.70;1.00
9323;DHT22;4700;48.822;9.270;2022-09-30T05:43:37;5.80;1.00
9323;DHT22;4700;48.822;9.270;2022-09-30T05:46:23;5.80;1.00
9323;DHT22;4700;48.822;9.270;2022-09-30T05:49:08;5.80;1.00
9323;DHT22;4700;48.822;9.270;2022-09-30T05:51:54;5.80;1.00
9323;DHT22;4700;48.822;9.270;2022-09-30T05:54:40;5.80;1.00
9323;DHT22;4700;48.822;9.270;2022-09-30T05:57:26;6.00;1.00
9323;DHT22;4700;48.822;9.270;2022-09-30T06:00:16;6.00;1.00
9323;DHT22;4700;48.822;9.270;2022-09-30T06:03:03;6.00;1.00
9323;DHT22;4700;48.822;9.270;2022-09-30T06:05:55;6.10;1.00
9323;DHT22;4700;48.822;9.270;2022-09-30T06:08:41;6.10;1.00
9323;DHT22;4700;48.822;9.270;2022-09-30T06:11:28;6.10;1.00
9323;DHT22;4700;48.822;9.270;2022-09-30T06:14:14;6.10;1.00
9323;DHT22;4700;48.822;9.270;2022-09-30T06:17:05;6.20;1.00
9323;DHT22;4700;48.822;9.270;2022-09-30T06:19:51;6.20;1.00
9323;DHT22;4700;48.822;9.270;2022-09-30T06:22:37;6.30;1.00
9323;DHT22;4700;48.822;9.270;2022-09-30T06:25:26;6.40;1.00
9323;DHT22;4700;48.822;9.270;2022-09-30T06:28:12;6.50;1.00
9323;DHT22;4700;48.822;9.270;2022-09-30T06:30:58;6.50;1.00
9323;DHT22;4700;48.822;9.270;2022-09-30T06:33:45;6.60;1.00
9323;DHT22;4700;48.822;9.270;2022-09-30T06:36:32;6.90;1.00
9323;DHT22;4700;48.822;9.270;2022-09-30T06:39:18;7.10;1.00
9323;DHT22;4700;48.822;9.270;2022-09-30T06:42:04;7.20;1.00
9323;DHT22;4700;48.822;9.270;2022-09-30T06:44:50;7.10;1.00
9323;DHT22;4700;48.822;9.270;2022-09-30T06:47:37;7.40;1.00
9323;DHT22;4700;48.822;9.270;2022-09-30T06:50:24;7.50;1.00
9323;DHT22;4700;48.822;9.270;2022-09-30T06:53:12;7.60;1.00
9323;DHT22;4700;48.822;9.270;2022-09-30T06:55:58;7.70;1.00
9323;DHT22;4700;48.822;9.270;2022-09-30T06:58:44;7.90;1.00
9323;DHT22;4700;48.822;9.270;2022-09-30T07:01:30;8.20;1.00
9323;DHT22;4700;48.822;9.270;2022-09-30T07:04:16;8.30;1.00
9323;DHT22;4700;48.822;9.270;2022-09-30T07:07:05;8.30;1.00
9323;DHT22;4700;48.822;9.270;2022-09-30T07:09:52;8.30;1.00
9323;DHT22;4700;48.822;9.270;2022-09-30T07:12:39;8.50;1.00
9323;DHT22;4700;48.822;9.270;2022-09-30T07:15:26;8.60;1.00
9323;DHT22;4700;48.822;9.270;2022-09-30T07:18:12;8.80;1.00
9323;DHT22;4700;48.822;9.270;2022-09-30T07:21:00;9.00;1.00
9323;DHT22;4700;48.822;9.270;2022-09-30T07:23:48;9.20;1.00
9323;DHT22;4700;48.822;9.270;2022-09-30T07:26:36;9.10;1.00
9323;DHT22;4700;48.822;9.270;2022-09-30T07:29:23;9.60;1.00
9323;DHT22;4700;48.822;9.270;2022-09-30T07:32:09;9.70;1.00
9323;DHT22;4700;48.822;9.270;2022-09-30T07:34:57;10.60;1.00
9323;DHT22;4700;48.822;9.270;2022-09-30T07:37:43;11.30;1.00
9323;DHT22;4700;48.822;9.270;2022-09-30T07:40:31;11.50;1.00
9323;DHT22;4700;48.822;9.270;2022-09-30T07:43:17;11.70;1.00
9323;DHT22;4700;48.822;9.270;2022-09-30T07:46:05;12.40;1.00
9323;DHT22;4700;48.822;9.270;2022-09-30T07:48:53;13.20;1.00
9323;DHT22;4700;48.822;9.270;2022-09-30T07:51:41;14.60;1.00
9323;DHT22;4700;48.822;9.270;2022-09-30T07:54:30;15.10;1.00
9323;DHT22;4700;48.822;9.270;2022-09-30T07:57:18;15.40;1.00
9323;DHT22;4700;48.822;9.270;2022-09-30T08:00:07;14.70;1.00
9323;DHT22;4700;48.822;9.270;2022-09-30T08:02:54;14.20;1.00
9323;DHT22;4700;48.822;9.270;2022-09-30T08:05:50;13.60;1.00
9323;DHT22;4700;48.822;9.270;2022-09-30T08:08:54;13.20;1.00
9323;DHT22;4700;48.822;9.270;2022-09-30T08:11:47;13.10;1.00
9323;DHT22;4700;48.822;9.270;2022-09-30T08:14:44;13.20;1.00
9323;DHT22;4700;48.822;9.270;2022-09-30T08:17:33;12.90;1.00
9323;DHT22;4700;48.822;9.270;2022-09-30T08:20:28;13.10;1.00
9323;DHT22;4700;48.822;9.270;2022-09-30T08:23:28;13.20;1.00
9323;DHT22;4700;48.822;9.270;2022-09-30T08:26:22;13.20;1.00
9323;DHT22;4700;48.822;9.270;2022-09-30T08:29:13;13.10;1.00
9323;DHT22;4700;48.822;9.270;2022-09-30T08:32:03;13.70;1.00
9323;DHT22;4700;48.822;9.270;2022-09-30T08:34:51;14.20;1.00
9323;DHT22;4700;48.822;9.270;2022-09-30T08:37:41;15.20;1.00
9323;DHT22;4700;48.822;9.270;2022-09-30T08:40:30;16.70;1.00
9323;DHT22;4700;48.822;9.270;2022-09-30T08:43:25;17.30;1.00
9323;DHT22;4700;48.822;9.270;2022-09-30T08:46:22;18.00;1.00
9323;DHT22;4700;48.822;9.270;2022-09-30T08:49:34;19.00;1.00
9323;DHT22;4700;48.822;9.270;2022-09-30T08:52:38;18.60;1.00
9323;DHT22;4700;48.822;9.270;2022-09-30T08:55:40;17.30;1.00
9323;DHT22;4700;48.822;9.270;2022-09-30T08:58:31;18.10;1.00
9323;DHT22;4700;48.822;9.270;2022-09-30T09:01:32;18.90;1.00
9323;DHT22;4700;48.822;9.270;2022-09-30T09:04:42;19.50;1.00
9323;DHT22;4700;48.822;9.270;2022-09-30T09:07:43;18.50;1.00
9323;DHT22;4700;48.822;9.270;2022-09-30T09:10:41;19.50;1.00
9323;DHT22;4700;48.822;9.270;2022-09-30T09:13:41;22.20;1.00
9323;DHT22;4700;48.822;9.270;2022-09-30T09:16:44;23.50;1.00
9323;DHT22;4700;48.822;9.270;2022-09-30T09:19:53;23.50;1.00
9323;DHT22;4700;48.822;9.270;2022-09-30T09:22:56;23.30;1.00
9323;DHT22;4700;48.822;9.270;2022-09-30T09:25:45;22.10;1.00
9323;DHT22;4700;48.822;9.270;2022-09-30T09:28:41;22.20;1.00
9323;DHT22;4700;48.822;9.270;2022-09-30T09:31:12;22.50;1.00
9323;DHT22;4700;48.822;9.270;2022-09-30T09:34:06;23.30;1.00
9323;DHT22;4700;48.822;9.270;2022-09-30T09:37:04;22.00;1.00
9323;DHT22;4700;48.822;9.270;2022-09-30T09:40:24;20.10;1.00
9323;DHT22;4700;48.822;9.270;2022-09-30T09:43:18;17.80;1.00
9323;DHT22;4700;48.822;9.270;2022-09-30T09:46:14;17.40;1.00
9323;DHT22;4700;48.822;9.270;2022-09-30T09:49:28;16.20;1.00
9323;DHT22;4700;48.822;9.270;2022-09-30T09:52:58;15.60;1.00
9323;DHT22;4700;48.822;9.270;2022-09-30T09:55:48;15.00;1.00
9323;DHT22;4700;48.822;9.270;2022-09-30T09:58:36;14.90;1.00
9323;DHT22;4700;48.822;9.270;2022-09-30T10:01:22;15.30;1.00
9323;DHT22;4700;48.822;9.270;2022-09-30T10:04:18;15.20;1.00
9323;DHT22;4700;48.822;9.270;2022-09-30T10:07:12;15.20;1.00
9323;DHT22;4700;48.822;9.270;2022-09-30T10:10:10;15.40;1.00
9323;DHT22;4700;48.822;9.270;2022-09-30T10:13:00;15.30;1.00
9323;DHT22;4700;48.822;9.270;2022-09-30T10:15:46;15.10;1.00
9323;DHT22;4700;48.822;9.270;2022-09-30T10:18:36;14.90;1.00
9323;DHT22;4700;48.822;9.270;2022-09-30T10:21:28;15.20;1.00
9323;DHT22;4700;48.822;9.270;2022-09-30T10:24:19;15.10;1.00
9323;DHT22;4700;48.822;9.270;2022-09-30T10:27:26;15.00;1.00
9323;DHT22;4700;48.822;9.270;2022-09-30T10:30:12;14.70;1.00
9323;DHT22;4700;48.822;9.270;2022-09-30T10:33:24;14.50;1.00
9323;DHT22;4700;48.822;9.270;2022-09-30T10:36:14;14.70;1.00
9323;DHT22;4700;48.822;9.270;2022-09-30T10:39:06;14.40;1.00
9323;DHT22;4700;48.822;9.270;2022-09-30T10:42:00;14.30;1.00
9323;DHT22;4700;48.822;9.270;2022-09-30T10:44:51;14.10;1.00
9323;DHT22;4700;48.822;9.270;2022-09-30T10:47:42;14.10;1.00
9323;DHT22;4700;48.822;9.270;2022-09-30T10:50:29;14.10;1.00
9323;DHT22;4700;48.822;9.270;2022-09-30T10:53:20;14.20;1.00
9323;DHT22;4700;48.822;9.270;2022-09-30T10:56:07;14.00;1.00
9323;DHT22;4700;48.822;9.270;2022-09-30T10:58:54;14.20;1.00
9323;DHT22;4700;48.822;9.270;2022-09-30T11:01:46;14.20;1.00
9323;DHT22;4700;48.822;9.270;2022-09-30T11:04:36;14.30;1.00
9323;DHT22;4700;48.822;9.270;2022-09-30T11:07:30;14.40;1.00
9323;DHT22;4700;48.822;9.270;2022-09-30T11:10:30;14.40;1.00
9323;DHT22;4700;48.822;9.270;2022-09-30T11:13:22;14.60;1.00
9323;DHT22;4700;48.822;9.270;2022-09-30T11:16:16;14.70;1.00
9323;DHT22;4700;48.822;9.270;2022-09-30T11:19:09;14.60;1.00
9323;DHT22;4700;48.822;9.270;2022-09-30T11:22:02;14.60;1.00
9323;DHT22;4700;48.822;9.270;2022-09-30T11:24:54;14.50;1.00
9323;DHT22;4700;48.822;9.270;2022-09-30T11:27:53;14.50;1.00
9323;DHT22;4700;48.822;9.270;2022-09-30T11:30:49;14.40;1.00
9323;DHT22;4700;48.822;9.270;2022-09-30T11:33:48;14.40;1.00
9323;DHT22;4700;48.822;9.270;2022-09-30T11:36:44;14.60;1.00
9323;DHT22;4700;48.822;9.270;2022-09-30T11:39:54;14.70;1.00
9323;DHT22;4700;48.822;9.270;2022-09-30T11:42:46;14.80;1.00
9323;DHT22;4700;48.822;9.270;2022-09-30T11:45:49;14.90;1.00
9323;DHT22;4700;48.822;9.270;2022-09-30T11:48:47;15.00;1.00
9323;DHT22;4700;48.822;9.270;2022-09-30T11:51:42;15.00;1.00
9323;DHT22;4700;48.822;9.270;2022-09-30T11:54:42;15.30;1.00
9323;DHT22;4700;48.822;9.270;2022-09-30T11:57:34;15.20;1.00
9323;DHT22;4700;48.822;9.270;2022-09-30T12:00:22;15.30;1.00
9323;DHT22;4700;48.822;9.270;2022-09-30T12:03:11;15.50;1.00
9323;DHT22;4700;48.822;9.270;2022-09-30T12:06:01;15.70;1.00
9323;DHT22;4700;48.822;9.270;2022-09-30T12:08:52;15.80;1.00
9323;DHT22;4700;48.822;9.270;2022-09-30T12:11:45;15.90;1.00
9323;DHT22;4700;48.822;9.270;2022-09-30T12:14:37;15.60;1.00
9323;DHT22;4700;48.822;9.270;2022-09-30T12:17:27;15.40;1.00
9323;DHT22;4700;48.822;9.270;2022-09-30T12:20:19;15.30;1.00
9323;DHT22;4700;48.822;9.270;2022-09-30T12:23:15;15.40;1.00
9323;DHT22;4700;48.822;9.270;2022-09-30T12:26:07;15.30;1.00
9323;DHT22;4700;48.822;9.270;2022-09-30T12:29:01;15.10;1.00
9323;DHT22;4700;48.822;9.270;2022-09-30T12:32:00;15.00;1.00
9323;DHT22;4700;48.822;9.270;2022-09-30T12:34:57;15.00;1.00
9323;DHT22;4700;48.822;9.270;2022-09-30T12:37:55;15.30;1.00
9323;DHT22;4700;48.822;9.270;2022-09-30T12:40:55;15.50;1.00
9323;DHT22;4700;48.822;9.270;2022-09-30T12:44:13;15.60;1.00
9323;DHT22;4700;48.822;9.270;2022-09-30T12:47:19;15.30;1.00
9323;DHT22;4700;48.822;9.270;2022-09-30T12:50:15;15.40;1.00
9323;DHT22;4700;48.822;9.270;2022-09-30T12:53:11;15.40;1.00
9323;DHT22;4700;48.822;9.270;2022-09-30T12:56:05;15.70;1.00
9323;DHT22;4700;48.822;9.270;2022-09-30T12:58:51;16.10;1.00
9323;DHT22;4700;48.822;9.270;2022-09-30T13:01:39;16.30;1.00
9323;DHT22;4700;48.822;9.270;2022-09-30T13:04:32;16.10;1.00
9323;DHT22;4700;48.822;9.270;2022-09-30T13:07:21;15.90;1.00
9323;DHT22;4700;48.822;9.270;2022-09-30T13:10:27;15.90;1.00
9323;DHT22;4700;48.822;9.270;2022-09-30T13:13:20;15.90;1.00
9323;DHT22;4700;48.822;9.270;2022-09-30T13:16:08;16.10;1.00
9323;DHT22;4700;48.822;9.270;2022-09-30T13:19:00;16.60;1.00
9323;DHT22;4700;48.822;9.270;2022-09-30T13:21:46;16.90;1.00
9323;DHT22;4700;48.822;9.270;2022-09-30T13:25:02;17.10;1.00
9323;DHT22;4700;48.822;9.270;2022-09-30T13:27:50;17.20;1.00
9323;DHT22;4700;48.822;9.270;2022-09-30T13:30:38;17.10;1.00
9323;DHT22;4700;48.822;9.270;2022-09-30T13:33:42;17.00;1.00
9323;DHT22;4700;48.822;9.270;2022-09-30T13:36:37;16.90;1.00
9323;DHT22;4700;48.822;9.270;2022-09-30T13:39:25;16.80;1.00
9323;DHT22;4700;48.822;9.270;2022-09-30T13:42:19;16.80;1.00
9323;DHT22;4700;48.822;9.270;2022-09-30T13:45:13;16.70;1.00
9323;DHT22;4700;48.822;9.270;2022-09-30T13:48:06;16.50;1.00
9323;DHT22;4700;48.822;9.270;2022-09-30T13:50:55;16.40;1.00
9323;DHT22;4700;48.822;9.270;2022-09-30T13:53:47;16.00;1.00
9323;DHT22;4700;48.822;9.270;2022-09-30T13:56:37;16.00;1.00
9323;DHT22;4700;48.822;9.270;2022-09-30T13:59:44;15.90;1.00
9323;DHT22;4700;48.822;9.270;2022-09-30T14:02:53;15.70;1.00
9323;DHT22;4700;48.822;9.270;2022-09-30T14:05:56;15.70;1.00
9323;DHT22;4700;48.822;9.270;2022-09-30T14:09:06;15.70;1.00
9323;DHT22;4700;48.822;9.270;2022-09-30T14:12:10;15.90;1.00
9323;DHT22;4700;48.822;9.270;2022-09-30T14:15:21;16.00;1.00
9323;DHT22;4700;48.822;9.270;2022-09-30T14:18:32;16.10;1.00
9323;DHT22;4700;48.822;9.270;2022-09-30T14:21:32;16.30;1.00
9323;DHT22;4700;48.822;9.270;2022-09-30T14:24:24;16.40;1.00
9323;DHT22;4700;48.822;9.270;2022-09-30T14:27:34;16.60;1.00
9323;DHT22;4700;48.822;9.270;2022-09-30T14:30:25;16.80;1.00
9323;DHT22;4700;48.822;9.270;2022-09-30T14:33:23;17.10;1.00
9323;DHT22;4700;48.822;9.270;2022-09-30T14:39:54;17.40;1.00
9323;DHT22;4700;48.822;9.270;2022-09-30T14:42:43;17.40;1.00
9323;DHT22;4700;48.822;9.270;2022-09-30T14:45:32;17.30;1.00
9323;DHT22;4700;48.822;9.270;2022-09-30T14:48:21;17.30;1.00
9323;DHT22;4700;48.822;9.270;2022-09-30T14:51:10;17.40;1.00
9323;DHT22;4700;48.822;9.270;2022-09-30T14:53:58;17.60;1.00
9323;DHT22;4700;48.822;9.270;2022-09-30T14:56:47;17.50;1.00
9323;DHT22;4700;48.822;9.270;2022-09-30T14:59:34;17.50;1.00
9323;DHT22;4700;48.822;9.270;2022-09-30T15:02:21;17.40;1.00
9323;DHT22;4700;48.822;9.270;2022-09-30T15:05:12;17.30;1.00
9323;DHT22;4700;48.822;9.270;2022-09-30T15:08:00;17.10;1.00
9323;DHT22;4700;48.822;9.270;2022-09-30T15:10:46;16.90;1.00
9323;DHT22;4700;48.822;9.270;2022-09-30T15:13:36;16.60;1.00
9323;DHT22;4700;48.822;9.270;2022-09-30T15:16:24;16.60;1.00
9323;DHT22;4700;48.822;9.270;2022-09-30T15:19:17;17.00;1.00
9323;DHT22;4700;48.822;9.270;2022-09-30T15:22:05;17.60;1.00
9323;DHT22;4700;48.822;9.270;2022-09-30T15:24:53;18.00;1.00
9323;DHT22;4700;48.822;9.270;2022-09-30T15:27:41;18.00;1.00
9323;DHT22;4700;48.822;9.270;2022-09-30T15:30:30;18.40;1.00
9323;DHT22;4700;48.822;9.270;2022-09-30T15:33:18;19.20;1.00
9323;DHT22;4700;48.822;9.270;2022-09-30T15:36:12;19.30;1.00
9323;DHT22;4700;48.822;9.270;2022-09-30T15:39:00;18.90;1.00
9323;DHT22;4700;48.822;9.270;2022-09-30T15:41:47;18.20;1.00
9323;DHT22;4700;48.822;9.270;2022-09-30T15:44:36;17.60;1.00
9323;DHT22;4700;48.822;9.270;2022-09-30T15:47:24;17.00;1.00
9323;DHT22;4700;48.822;9.270;2022-09-30T15:50:34;16.60;1.00
9323;DHT22;4700;48.822;9.270;2022-09-30T15:53:22;16.20;1.00
9323;DHT22;4700;48.822;9.270;2022-09-30T15:56:15;16.00;1.00
9323;DHT22;4700;48.822;9.270;2022-09-30T15:59:04;15.70;1.00
9323;DHT22;4700;48.822;9.270;2022-09-30T16:01:51;15.50;1.00
9323;DHT22;4700;48.822;9.270;2022-09-30T16:04:42;15.40;1.00
9323;DHT22;4700;48.822;9.270;2022-09-30T16:07:29;15.20;1.00
9323;DHT22;4700;48.822;9.270;2022-09-30T16:10:18;15.10;1.00
9323;DHT22;4700;48.822;9.270;2022-09-30T16:13:07;14.90;1.00
9323;DHT22;4700;48.822;9.270;2022-09-30T16:15:54;14.80;1.00
9323;DHT22;4700;48.822;9.270;2022-09-30T16:18:42;14.70;1.00
9323;DHT22;4700;48.822;9.270;2022-09-30T16:21:41;14.60;1.00
9323;DHT22;4700;48.822;9.270;2022-09-30T16:24:47;14.50;1.00
9323;DHT22;4700;48.822;9.270;2022-09-30T16:27:33;14.40;1.00
9323;DHT22;4700;48.822;9.270;2022-09-30T16:30:19;14.30;1.00
9323;DHT22;4700;48.822;9.270;2022-09-30T16:33:05;14.30;1.00
9323;DHT22;4700;48.822;9.270;2022-09-30T16:35:52;14.20;1.00
9323;DHT22;4700;48.822;9.270;2022-09-30T16:38:39;14.10;1.00
9323;DHT22;4700;48.822;9.270;2022-09-30T16:41:26;14.00;1.00
9323;DHT22;4700;48.822;9.270;2022-09-30T16:44:12;13.90;1.00
9323;DHT22;4700;48.822;9.270;2022-09-30T16:46:58;13.80;1.00
9323;DHT22;4700;48.822;9.270;2022-09-30T16:49:45;13.70;1.00
9323;DHT22;4700;48.822;9.270;2022-09-30T16:52:31;13.60;1.00
9323;DHT22;4700;48.822;9.270;2022-09-30T16:55:18;13.40;1.00
9323;DHT22;4700;48.822;9.270;2022-09-30T16:58:04;13.30;1.00
9323;DHT22;4700;48.822;9.270;2022-09-30T17:00:50;13.20;1.00
9323;DHT22;4700;48.822;9.270;2022-09-30T17:03:36;13.10;1.00
9323;DHT22;4700;48.822;9.270;2022-09-30T17:06:26;12.90;1.00
9323;DHT22;4700;48.822;9.270;2022-09-30T17:09:13;12.80;1.00
9323;DHT22;4700;48.822;9.270;2022-09-30T17:12:00;12.70;1.00
9323;DHT22;4700;48.822;9.270;2022-09-30T17:14:46;12.50;1.00
9323;DHT22;4700;48.822;9.270;2022-09-30T17:17:32;12.40;1.00
9323;DHT22;4700;48.822;9.270;2022-09-30T17:20:19;12.30;1.00
9323;DHT22;4700;48.822;9.270;2022-09-30T17:23:05;12.10;1.00
9323;DHT22;4700;48.822;9.270;2022-09-30T17:25:52;12.00;1.00
9323;DHT22;4700;48.822;9.270;2022-09-30T17:28:39;11.90;1.00
9323;DHT22;4700;48.822;9.270;2022-09-30T17:31:25;11.80;1.00
9323;DHT22;4700;48.822;9.270;2022-09-30T17:34:11;11.90;1.00
9323;DHT22;4700;48.822;9.270;2022-09-30T17:36:57;12.10;1.00
9323;DHT22;4700;48.822;9.270;2022-09-30T17:39:43;11.90;1.00
9323;DHT22;4700;48.822;9.270;2022-09-30T17:42:29;11.80;1.00
9323;DHT22;4700;48.822;9.270;2022-09-30T17:45:34;11.80;1.00
9323;DHT22;4700;48.822;9.270;2022-09-30T17:48:20;11.70;1.00
9323;DHT22;4700;48.822;9.270;2022-09-30T17:51:06;11.70;1.00
9323;DHT22;4700;48.822;9.270;2022-09-30T17:53:52;11.60;1.00
9323;DHT22;4700;48.822;9.270;2022-09-30T17:56:40;11.50;1.00
9323;DHT22;4700;48.822;9.270;2022-09-30T17:59:27;11.40;1.00
9323;DHT22;4700;48.822;9.270;2022-09-30T18:02:15;11.30;1.00
9323;DHT22;4700;48.822;9.270;2022-09-30T18:05:01;11.20;1.00
9323;DHT22;4700;48.822;9.270;2022-09-30T18:07:47;11.20;1.00
9323;DHT22;4700;48.822;9.270;2022-09-30T18:10:35;11.10;1.00
9323;DHT22;4700;48.822;9.270;2022-09-30T18:13:21;11.10;1.00
9323;DHT22;4700;48.822;9.270;2022-09-30T18:16:07;11.00;1.00
9323;DHT22;4700;48.822;9.270;2022-09-30T18:18:55;11.00;1.00
9323;DHT22;4700;48.822;9.270;2022-09-30T18:21:42;10.90;1.00
9323;DHT22;4700;48.822;9.270;2022-09-30T18:24:28;10.70;1.00
9323;DHT22;4700;48.822;9.270;2022-09-30T18:27:32;10.60;1.00
9323;DHT22;4700;48.822;9.270;2022-09-30T18:30:19;10.50;1.00
9323;DHT22;4700;48.822;9.270;2022-09-30T18:32:56;10.30;1.00
9323;DHT22;4700;48.822;9.270;2022-09-30T18:35:44;10.30;1.00
9323;DHT22;4700;48.822;9.270;2022-09-30T18:38:32;10.20;1.00
9323;DHT22;4700;48.822;9.270;2022-09-30T18:41:18;10.10;1.00
9323;DHT22;4700;48.822;9.270;2022-09-30T18:44:06;10.00;1.00
9323;DHT22;4700;48.822;9.270;2022-09-30T18:46:52;9.90;1.00
9323;DHT22;4700;48.822;9.270;2022-09-30T18:49:39;9.90;1.00
9323;DHT22;4700;48.822;9.270;2022-09-30T18:52:26;9.90;1.00
9323;DHT22;4700;48.822;9.270;2022-09-30T18:55:12;9.90;1.00
9323;DHT22;4700;48.822;9.270;2022-09-30T18:57:58;9.80;1.00
9323;DHT22;4700;48.822;9.270;2022-09-30T19:00:44;9.70;1.00
9323;DHT22;4700;48.822;9.270;2022-09-30T19:03:31;9.70;1.00
9323;DHT22;4700;48.822;9.270;2022-09-30T19:06:17;9.60;1.00
9323;DHT22;4700;48.822;9.270;2022-09-30T19:09:04;9.60;1.00
9323;DHT22;4700;48.822;9.270;2022-09-30T19:11:52;9.60;1.00
9323;DHT22;4700;48.822;9.270;2022-09-30T19:14:38;9.50;1.00
9323;DHT22;4700;48.822;9.270;2022-09-30T19:17:27;9.50;1.00
9323;DHT22;4700;48.822;9.270;2022-09-30T19:20:15;9.50;1.00